Date,TemperatureHighF,TemperatureAvgF,TemperatureLowF,DewpointHighF,DewpointAvgF,DewpointLowF,HumidityHigh,HumidityAvg,HumidityLow,PressureMaxIn,PressureMinIn,WindSpeedMaxMPH,WindSpeedAvgMPH,GustSpeedMaxMPH,PrecipitationSumIn
2013-1-1,15.3,10.7,8.1,4.0,-1.8,-4.0,72,58,45,30.38,30.19,30,13,35,0.00
2013-1-2,16.9,10.7,7.6,1.0,-1.3,-5.0,69,59,47,30.52,30.38,20,10,30,0.00
2013-1-3,31.3,18.7,6.3,-5.0,-9.3,-15.0,60,32,15,30.57,30.40,12,3,16,0.00
2013-1-4,36.8,30.0,25.5,10.0,3.3,-8.0,38,32,22,30.39,30.02,7,2,10,0.00
2013-1-5,30.9,26.6,22.6,1.0,-4.0,-18.0,34,27,12,30.32,30.00,27,11,34,0.00
2013-1-6,44.5,35.6,25.8,-1.0,-22.7,-57.0,22,9,1,30.31,29.87,19,6,23,0.00
2013-1-7,41.7,33.9,29.2,4.0,-7.4,-16.0,26,17,8,29.91,29.75,23,8,33,0.00
2013-1-8,32.0,29.4,26.9,15.0,9.2,-11.0,57,44,16,30.24,29.72,39,16,59,0.00
2013-1-9,50.3,38.7,31.0,10.0,6.5,-4.0,42,27,16,30.31,29.89,19,6,31,0.00
2013-1-10,44.5,38.4,30.4,8.0,-2.4,-12.0,37,19,11,29.89,29.30,14,3,18,0.00
2013-1-11,29.8,16.2,4.0,18.0,2.0,-8.0,86,55,32,29.80,29.12,30,12,46,0.00
2013-1-12,9.4,1.6,-7.2,-2.0,-9.2,-13.0,81,62,38,30.24,29.81,28,6,36,0.00
2013-1-13,4.1,-0.8,-7.6,-2.0,-8.5,-13.0,81,70,52,30.42,30.24,12,1,16,0.00
2013-1-14,6.8,0.5,-6.2,0.0,-8.2,-13.0,82,67,53,30.48,30.36,22,4,31,0.00
2013-1-15,21.8,11.7,-0.9,9.0,-2.8,-16.0,60,52,47,30.51,30.41,27,11,36,0.00
2013-1-16,34.8,26.9,19.8,16.0,13.8,8.0,69,58,47,30.45,30.34,23,10,33,0.00
2013-1-17,40.6,31.3,26.2,14.0,8.4,2.0,55,39,24,30.46,30.23,21,6,37,0.00
2013-1-18,37.5,32.6,30.5,5.0,0.6,-3.0,33,26,22,30.22,30.08,33,18,49,0.00
2013-1-19,39.9,32.5,27.8,1.0,-1.0,-8.0,32,24,15,30.27,30.05,39,14,55,0.00
2013-1-20,36.0,31.1,27.0,4.0,-0.6,-5.0,37,26,19,30.22,30.06,38,14,51,0.00
2013-1-21,34.9,30.3,25.1,8.0,1.6,-7.0,40,30,18,30.19,30.09,37,18,53,0.00
2013-1-22,43.0,37.8,32.7,-7.0,-15.1,-35.0,18,10,3,30.16,30.02,38,20,57,0.00
2013-1-23,51.7,44.8,41.9,-3.0,-16.7,-41.0,13,8,2,30.10,29.98,29,14,47,0.00
2013-1-24,44.4,38.8,34.7,25.0,8.6,-10.0,67,34,11,30.00,29.80,40,12,47,0.00
2013-1-25,42.3,36.4,33.3,26.0,24.0,21.0,68,61,52,30.06,29.98,29,14,36,0.00
2013-1-26,43.5,35.6,29.1,28.0,23.9,20.0,91,64,42,29.98,29.61,23,5,33,0.00
2013-1-27,43.4,34.6,29.0,29.0,21.6,10.0,91,61,34,29.71,29.57,19,6,27,0.04
2013-1-28,40.4,28.3,17.1,24.0,15.6,7.0,89,63,35,29.64,29.45,17,2,27,0.00
2013-1-29,17.0,10.4,5.2,14.0,0.7,-5.0,88,66,44,30.11,29.59,31,9,34,0.00
2013-1-30,20.8,13.7,4.7,14.0,5.4,-3.0,77,70,59,30.16,30.07,38,14,52,0.00
2013-1-31,28.8,23.9,20.7,15.0,12.5,10.0,76,62,50,30.25,30.03,44,14,57,0.00
2013-2-1,27.7,24.8,22.7,20.0,14.2,9.0,86,65,50,30.24,30.07,49,17,55,0.00
2013-2-2,37.0,29.6,23.7,13.0,5.8,1.0,64,38,24,30.38,30.25,33,14,49,0.00
2013-2-3,42.1,33.0,27.5,4.0,-3.5,-14.0,35,22,10,30.26,29.89,29,10,34,0.00
2013-2-4,33.8,29.3,25.6,11.0,3.5,-2.0,48,34,26,29.98,29.87,39,19,52,0.00
2013-2-5,44.3,35.4,27.9,21.0,16.3,11.0,54,46,38,30.07,29.80,33,12,46,0.00
2013-2-6,37.5,32.3,22.1,25.0,17.9,15.0,92,57,42,29.98,29.72,16,7,25,0.00
2013-2-7,38.4,27.5,19.0,15.0,1.4,-12.0,82,37,12,30.18,29.98,23,6,28,0.03
2013-2-8,36.8,31.5,28.3,17.0,0.6,-14.0,61,29,14,30.04,29.63,21,3,26,0.00
2013-2-9,28.5,21.6,15.6,20.0,14.1,8.0,90,74,52,29.63,29.47,20,4,28,0.00
2013-2-10,18.1,14.7,8.9,13.0,7.7,4.0,86,74,59,30.13,29.57,22,4,35,0.00
2013-2-11,18.4,10.3,2.9,13.0,5.7,-1.0,86,81,71,30.28,30.14,16,2,21,0.00
2013-2-12,27.6,15.4,7.9,4.0,-0.5,-8.0,70,51,33,30.30,30.23,28,14,38,0.00
2013-2-13,25.0,20.6,15.4,13.0,8.8,4.0,68,61,55,30.26,30.08,40,24,67,0.00
2013-2-14,24.4,17.6,9.1,14.0,10.4,5.0,89,74,53,30.32,30.07,36,8,47,0.00
2013-2-15,23.2,17.7,13.2,12.0,9.1,6.0,87,70,50,30.48,30.31,32,12,45,0.00
2013-2-16,34.1,27.6,21.3,13.0,9.2,4.0,61,47,32,30.40,29.98,46,20,58,0.00
2013-2-17,42.7,32.0,19.0,12.0,0.5,-9.0,61,29,14,29.98,29.54,38,12,49,0.00
2013-2-18,21.7,17.1,11.9,7.0,0.6,-14.0,69,50,20,30.20,29.63,28,12,41,0.00
2013-2-19,36.6,26.2,19.9,9.0,-6.8,-26.0,56,27,9,30.19,29.75,15,2,20,0.00
2013-2-20,31.0,22.3,14.5,14.0,8.3,2.0,87,58,34,29.74,29.57,5,1,11,0.00
2013-2-21,24.5,14.7,11.1,17.0,10.7,8.0,88,83,72,29.98,29.64,14,2,29,0.01
2013-2-22,24.0,16.3,11.9,15.0,6.2,0.0,78,65,48,30.05,29.96,25,11,49,0.00
2013-2-23,36.1,22.5,12.5,19.0,9.2,0.0,88,58,40,29.97,29.71,40,14,54,0.01
2013-2-24,17.0,14.4,8.7,14.0,11.5,5.0,89,88,86,30.23,29.70,14,2,17,0.00
2013-2-25,29.4,18.7,9.2,19.0,9.5,5.0,87,69,47,30.26,29.93,25,10,30,0.00
2013-2-26,24.4,18.2,12.0,18.0,11.7,7.0,92,77,50,30.21,29.84,20,4,27,0.00
2013-2-27,23.8,14.2,8.3,9.0,2.8,-5.0,82,62,40,30.45,30.22,21,10,32,0.00
2013-2-28,23.6,17.4,11.1,11.0,4.7,-1.0,70,58,43,30.48,30.38,33,17,44,0.00
2013-3-1,32.8,25.1,18.4,20.0,15.0,10.0,72,66,55,30.46,30.40,31,17,37,0.00
2013-3-2,41.0,34.1,27.8,22.0,18.7,14.0,71,54,41,30.42,30.03,27,13,40,0.01
2013-3-3,45.5,37.3,31.1,26.0,18.4,13.0,77,48,34,30.01,29.54,28,14,43,0.00
2013-3-4,31.9,22.2,12.9,25.0,14.1,-1.0,91,72,53,30.21,29.56,34,11,54,0.00
2013-3-5,41.8,29.2,12.6,0.0,-8.3,-15.0,54,22,11,30.38,30.15,35,11,41,0.00
2013-3-6,49.0,39.1,30.3,17.0,4.4,-10.0,38,24,15,30.14,29.73,18,4,24,0.00
2013-3-7,49.2,40.4,34.3,19.0,13.7,7.0,46,34,25,29.84,29.73,22,4,30,0.00
2013-3-8,45.2,35.0,24.3,24.0,16.4,5.0,90,51,27,29.81,29.51,8,1,12,0.00
2013-3-9,26.9,21.6,13.1,24.0,19.0,10.0,91,90,87,30.12,29.47,11,2,21,0.00
2013-3-10,33.1,21.2,10.9,25.0,14.5,7.0,88,76,58,30.28,30.11,27,8,38,0.22
2013-3-11,35.0,28.0,22.0,22.0,15.9,9.0,90,62,47,30.20,29.91,48,15,62,0.00
2013-3-12,37.1,27.0,16.6,23.0,18.3,14.0,90,72,50,30.30,30.08,44,9,48,0.13
2013-3-13,45.6,37.7,33.1,24.0,19.3,16.0,61,48,33,30.29,30.18,33,15,51,0.01
2013-3-14,52.2,43.2,37.4,20.0,15.9,8.0,50,35,17,30.22,30.03,27,14,38,0.00
2013-3-15,55.0,46.7,39.6,26.0,19.1,17.0,59,34,24,30.04,29.71,27,10,37,0.00
2013-3-16,42.1,36.2,31.5,29.0,24.9,19.0,76,64,48,29.75,29.65,19,5,25,0.00
2013-3-17,37.9,30.7,18.7,26.0,17.8,10.0,88,60,36,29.75,29.47,31,10,42,0.00